createdAt,value
2018-04-18T00:00:31.173Z,0.00
2018-04-18T00:01:31.174Z,0.00
2018-04-18T00:02:31.167Z,0.00
2018-04-18T00:03:31.165Z,0.00
2018-04-18T00:04:31.161Z,0.00
2018-04-18T00:05:31.162Z,0.00
2018-04-18T00:06:31.159Z,0.00
2018-04-18T00:07:31.151Z,0.00
2018-04-18T00:08:31.150Z,0.00
2018-04-18T00:09:31.146Z,0.00
2018-04-18T00:10:31.142Z,0.00
2018-04-18T00:11:31.139Z,0.00
2018-04-18T00:12:31.136Z,0.00
2018-04-18T00:13:31.133Z,0.00
2018-04-18T00:14:31.130Z,0.00
2018-04-18T00:15:31.128Z,0.00
2018-04-18T00:16:31.125Z,0.00
2018-04-18T00:17:31.124Z,0.00
2018-04-18T00:18:31.121Z,0.00
2018-04-18T00:19:31.114Z,0.00
2018-04-18T00:20:31.112Z,0.00
2018-04-18T00:21:31.106Z,0.00
2018-04-18T00:22:31.104Z,0.00
2018-04-18T00:23:31.104Z,0.00
2018-04-18T00:24:31.102Z,0.00
2018-04-18T00:25:31.095Z,0.00
2018-04-18T00:26:31.091Z,0.00
2018-04-18T00:27:31.089Z,0.00
2018-04-18T00:28:31.086Z,0.00
2018-04-18T00:29:31.081Z,0.00
2018-04-18T00:30:31.077Z,0.00
2018-04-18T00:31:31.076Z,0.00
2018-04-18T00:32:31.071Z,0.00
2018-04-18T00:33:31.068Z,0.00
2018-04-18T00:34:31.063Z,0.00
2018-04-18T00:35:31.064Z,0.00
2018-04-18T00:36:31.061Z,0.00
2018-04-18T00:37:31.057Z,0.00
2018-04-18T00:38:31.054Z,0.00
2018-04-18T00:39:31.047Z,0.00
2018-04-18T00:40:31.044Z,0.00
2018-04-18T00:41:31.041Z,0.00
2018-04-18T00:42:31.037Z,0.00
2018-04-18T00:43:31.037Z,0.00
2018-04-18T00:44:31.031Z,0.00
2018-04-18T00:45:31.033Z,0.00
2018-04-18T00:46:31.029Z,0.00
2018-04-18T00:47:31.019Z,0.00
2018-04-18T00:48:31.017Z,0.00
2018-04-18T00:49:31.020Z,0.00
2018-04-18T00:50:31.014Z,0.00
2018-04-18T00:51:31.004Z,0.00
2018-04-18T00:52:31.004Z,0.00
2018-04-18T00:53:30.998Z,0.00
2018-04-18T00:54:30.995Z,0.00
2018-04-18T00:55:30.994Z,0.00
2018-04-18T00:56:30.990Z,0.00
2018-04-18T00:57:30.983Z,0.00
2018-04-18T00:58:30.979Z,0.00
2018-04-18T00:59:30.975Z,0.00
2018-04-18T01:00:30.972Z,0.00
2018-04-18T01:01:30.969Z,0.00
2018-04-18T01:02:30.964Z,0.00
2018-04-18T01:03:30.961Z,0.00
2018-04-18T01:04:30.958Z,0.00
2018-04-18T01:05:30.953Z,0.00
2018-04-18T01:06:30.948Z,0.00
2018-04-18T01:07:30.949Z,0.00
2018-04-18T01:08:30.947Z,0.00
2018-04-18T01:09:30.937Z,0.00
2018-04-18T01:10:30.933Z,0.00
2018-04-18T01:11:30.933Z,0.00
2018-04-18T01:12:30.926Z,0.00
2018-04-18T01:13:30.921Z,0.00
2018-04-18T01:14:30.918Z,0.00
2018-04-18T01:15:30.917Z,0.00
2018-04-18T01:16:30.914Z,0.00
2018-04-18T01:17:30.906Z,0.00
2018-04-18T01:18:30.901Z,0.00
2018-04-18T01:19:30.902Z,0.00
2018-04-18T01:20:30.897Z,0.00
2018-04-18T01:21:30.889Z,0.00
2018-04-18T01:22:30.890Z,0.00
2018-04-18T01:23:30.881Z,0.00
2018-04-18T01:24:30.879Z,0.00
2018-04-18T01:25:30.876Z,0.00
2018-04-18T01:26:30.870Z,0.00
2018-04-18T01:27:30.865Z,0.00
2018-04-18T01:28:30.863Z,0.00
2018-04-18T01:29:30.861Z,0.00
2018-04-18T01:30:30.857Z,0.00
2018-04-18T01:31:30.850Z,0.00
2018-04-18T01:32:30.845Z,0.00
2018-04-18T01:33:30.844Z,0.00
2018-04-18T01:34:30.840Z,0.00
2018-04-18T01:35:30.832Z,0.00
2018-04-18T01:36:30.833Z,0.00
2018-04-18T01:37:30.824Z,0.00
2018-04-18T01:38:30.821Z,0.00
2018-04-18T01:39:30.816Z,0.00
2018-04-18T01:40:30.812Z,0.00
2018-04-18T01:41:30.807Z,0.00
2018-04-18T01:42:30.804Z,0.00
2018-04-18T01:43:30.801Z,0.00
2018-04-18T01:44:30.797Z,0.00
2018-04-18T01:45:30.791Z,0.00
2018-04-18T01:46:30.787Z,0.00
2018-04-18T01:47:30.787Z,0.00
2018-04-18T01:48:30.783Z,0.00
2018-04-18T01:49:30.775Z,0.00
2018-04-18T01:50:30.772Z,0.00
2018-04-18T01:51:30.776Z,0.00
2018-04-18T01:52:30.767Z,0.00
2018-04-18T01:53:30.759Z,0.00
2018-04-18T01:54:30.755Z,0.00
2018-04-18T01:55:30.753Z,0.00
2018-04-18T01:56:30.749Z,0.00
2018-04-18T01:57:30.744Z,0.00
2018-04-18T01:58:30.740Z,0.00
2018-04-18T01:59:30.738Z,0.00
2018-04-18T02:00:30.731Z,0.00
2018-04-18T02:01:30.731Z,0.00
2018-04-18T02:02:30.732Z,0.00
2018-04-18T02:03:30.725Z,0.00
2018-04-18T02:04:30.716Z,0.00
2018-04-18T02:05:30.714Z,0.00
2018-04-18T02:06:30.714Z,0.00
2018-04-18T02:07:30.709Z,0.00
2018-04-18T02:08:30.698Z,0.00
2018-04-18T02:09:30.696Z,0.00
2018-04-18T02:10:30.691Z,0.00
2018-04-18T02:11:30.688Z,0.00
2018-04-18T02:12:30.684Z,0.00
2018-04-18T02:13:30.677Z,0.00
2018-04-18T02:14:30.672Z,0.00
2018-04-18T02:15:30.668Z,0.00
2018-04-18T02:16:30.666Z,0.00
2018-04-18T02:17:30.659Z,0.00
2018-04-18T02:18:30.655Z,0.00
2018-04-18T02:19:30.654Z,0.00
2018-04-18T02:20:30.651Z,0.00
2018-04-18T02:21:30.644Z,0.00
2018-04-18T02:22:30.637Z,0.00
2018-04-18T02:23:30.639Z,0.00
2018-04-18T02:24:30.634Z,0.00
2018-04-18T02:25:30.625Z,0.00
2018-04-18T02:26:30.620Z,0.00
2018-04-18T02:27:30.618Z,0.00
2018-04-18T02:28:30.612Z,0.00
2018-04-18T02:29:30.607Z,0.00
2018-04-18T02:30:30.606Z,0.00
2018-04-18T02:31:30.600Z,0.00
2018-04-18T02:32:30.596Z,0.00
2018-04-18T02:33:30.594Z,0.00
2018-04-18T02:34:30.590Z,0.00
2018-04-18T02:35:30.581Z,0.00
2018-04-18T02:36:30.577Z,0.00
2018-04-18T02:37:30.576Z,0.00
2018-04-18T02:38:30.572Z,0.00
2018-04-18T02:39:30.564Z,0.00
2018-04-18T02:40:30.559Z,0.00
2018-04-18T02:41:30.556Z,0.00
2018-04-18T02:42:30.551Z,0.00
2018-04-18T02:43:30.546Z,0.00
2018-04-18T02:44:30.542Z,0.00
2018-04-18T02:45:30.536Z,0.00
2018-04-18T02:46:30.542Z,0.00
2018-04-18T02:47:30.529Z,0.00
2018-04-18T02:48:30.523Z,0.00
2018-04-18T02:49:30.518Z,0.00
2018-04-18T02:50:30.515Z,0.00
2018-04-18T02:51:30.514Z,0.00
2018-04-18T02:52:30.511Z,0.00
2018-04-18T02:53:30.508Z,0.00
2018-04-18T02:54:30.495Z,0.00
2018-04-18T02:55:30.495Z,0.00
2018-04-18T02:56:30.492Z,0.00
2018-04-18T02:57:30.482Z,0.00
2018-04-18T02:58:30.477Z,0.00
2018-04-18T02:59:30.474Z,0.00
2018-04-18T03:00:30.470Z,0.00
2018-04-18T03:01:30.465Z,0.00
2018-04-18T03:02:30.460Z,0.00
2018-04-18T03:03:30.456Z,0.00
2018-04-18T03:04:30.452Z,0.00
2018-04-18T03:05:30.449Z,0.00
2018-04-18T03:06:30.445Z,0.00
2018-04-18T03:07:30.438Z,0.00
2018-04-18T03:08:30.432Z,0.00
2018-04-18T03:09:30.430Z,0.00
2018-04-18T03:10:30.425Z,0.00
2018-04-18T03:11:30.417Z,0.00
2018-04-18T03:12:30.413Z,0.00
2018-04-18T03:13:30.408Z,0.00
2018-04-18T03:14:30.403Z,0.00
2018-04-18T03:15:30.399Z,0.00
2018-04-18T03:16:30.394Z,0.00
2018-04-18T03:17:30.433Z,0.00
2018-04-18T03:18:30.388Z,0.00
2018-04-18T03:19:30.382Z,0.00
2018-04-18T03:20:30.375Z,0.00
2018-04-18T03:21:30.369Z,0.00
2018-04-18T03:22:30.366Z,0.00
2018-04-18T03:23:30.360Z,0.00
2018-04-18T03:24:30.356Z,0.00
2018-04-18T03:25:30.351Z,0.00
2018-04-18T03:26:30.392Z,0.00
2018-04-18T03:27:30.342Z,0.00
2018-04-18T03:28:30.338Z,0.00
2018-04-18T03:29:30.336Z,0.00
2018-04-18T03:30:30.331Z,0.00
2018-04-18T03:31:30.323Z,0.00
2018-04-18T03:32:30.318Z,0.00
2018-04-18T03:33:30.313Z,0.00
2018-04-18T03:34:30.311Z,0.00
2018-04-18T03:35:30.311Z,0.00
2018-04-18T03:36:30.304Z,0.00
2018-04-18T03:37:30.293Z,0.00
2018-04-18T03:38:30.290Z,0.00
2018-04-18T03:39:30.290Z,0.00
2018-04-18T03:40:30.279Z,0.00
2018-04-18T03:41:30.273Z,0.00
2018-04-18T03:42:30.269Z,0.00
2018-04-18T03:43:30.266Z,0.00
2018-04-18T03:44:30.261Z,0.00
2018-04-18T03:45:30.253Z,0.00
2018-04-18T03:46:30.249Z,0.00
2018-04-18T03:47:30.257Z,0.00
2018-04-18T03:48:30.244Z,0.00
2018-04-18T03:49:30.239Z,0.00
2018-04-18T03:50:30.233Z,0.00
2018-04-18T03:51:30.225Z,0.00
2018-04-18T03:52:30.219Z,0.00
2018-04-18T03:53:30.213Z,0.00
2018-04-18T03:54:30.208Z,0.00
2018-04-18T03:55:30.205Z,0.00
2018-04-18T03:56:30.199Z,0.00
2018-04-18T03:57:30.193Z,4.00
2018-04-18T03:58:30.192Z,4.00
2018-04-18T03:59:30.184Z,0.00
2018-04-18T04:00:30.179Z,4.00
2018-04-18T04:01:30.178Z,4.00
2018-04-18T04:02:30.248Z,4.00
2018-04-18T04:03:30.164Z,4.00
2018-04-18T04:04:30.159Z,4.00
2018-04-18T04:05:30.153Z,8.00
2018-04-18T04:06:30.150Z,8.00
2018-04-18T04:07:30.149Z,8.00
2018-04-18T04:08:30.144Z,12.00
2018-04-18T04:09:30.135Z,12.00
2018-04-18T04:10:30.143Z,12.00
2018-04-18T04:11:30.125Z,16.00
2018-04-18T04:12:30.119Z,20.00
2018-04-18T04:13:30.113Z,24.00
2018-04-18T04:14:30.109Z,24.00
2018-04-18T04:15:30.105Z,32.00
2018-04-18T04:16:30.101Z,36.00
2018-04-18T04:17:30.094Z,40.00
2018-04-18T04:18:30.092Z,52.00
2018-04-18T04:19:30.088Z,56.00
2018-04-18T04:20:30.086Z,60.00
2018-04-18T04:21:30.080Z,72.00
2018-04-18T04:22:30.071Z,80.00
2018-04-18T04:23:30.064Z,92.00
2018-04-18T04:24:30.060Z,104.00
2018-04-18T04:25:30.055Z,116.00
2018-04-18T04:26:30.049Z,132.00
2018-04-18T04:27:30.048Z,144.00
2018-04-18T04:28:30.043Z,160.00
2018-04-18T04:29:30.034Z,176.00
2018-04-18T04:30:30.029Z,192.00
2018-04-18T04:31:30.063Z,212.00
2018-04-18T04:32:30.023Z,232.00
2018-04-18T04:33:30.013Z,252.00
2018-04-18T04:34:30.016Z,272.00
2018-04-18T04:35:30.003Z,300.00
2018-04-18T04:36:29.999Z,324.00
2018-04-18T04:37:29.993Z,352.00
2018-04-18T04:38:29.993Z,380.00
2018-04-18T04:39:29.986Z,408.00
2018-04-18T04:40:29.979Z,436.00
2018-04-18T04:41:29.983Z,468.00
2018-04-18T04:42:29.976Z,504.00
2018-04-18T04:43:29.964Z,540.00
2018-04-18T04:44:29.960Z,576.00
2018-04-18T04:45:29.957Z,616.00
2018-04-18T04:46:29.952Z,656.00
2018-04-18T04:47:29.944Z,696.00
2018-04-18T04:48:29.938Z,740.00
2018-04-18T04:49:29.932Z,788.00
2018-04-18T04:50:29.927Z,836.00
2018-04-18T04:51:29.924Z,884.00
2018-04-18T04:52:29.920Z,932.00
2018-04-18T04:53:29.912Z,984.00
2018-04-18T04:54:29.908Z,1036.00
2018-04-18T04:55:29.904Z,1096.00
2018-04-18T04:56:29.951Z,1148.00
2018-04-18T04:57:29.893Z,1208.00
2018-04-18T04:58:29.887Z,1272.00
2018-04-18T04:59:29.888Z,1332.00
2018-04-18T05:00:29.883Z,1396.00
2018-04-18T05:01:29.874Z,1460.00
2018-04-18T05:02:29.917Z,1540.00
2018-04-18T05:03:29.867Z,1652.00
2018-04-18T05:04:29.863Z,2052.00
2018-04-18T05:05:29.855Z,2732.00
2018-04-18T05:06:29.849Z,3404.00
2018-04-18T05:07:29.844Z,3792.00
2018-04-18T05:08:29.839Z,3992.00
2018-04-18T05:09:29.834Z,4292.00
2018-04-18T05:10:29.829Z,4632.00
2018-04-18T05:11:29.825Z,4932.00
2018-04-18T05:12:29.822Z,5240.00
2018-04-18T05:13:29.820Z,5540.00
2018-04-18T05:14:29.822Z,5772.00
2018-04-18T05:15:29.809Z,6008.00
2018-04-18T05:16:29.804Z,6244.00
2018-04-18T05:17:29.804Z,6496.00
2018-04-18T05:18:29.801Z,6780.00
2018-04-18T05:19:29.795Z,7072.00
2018-04-18T05:20:29.790Z,7360.00
2018-04-18T05:21:29.784Z,7648.00
2018-04-18T05:22:29.783Z,7968.00
2018-04-18T05:23:29.778Z,8200.00
2018-04-18T05:24:29.785Z,8440.00
2018-04-18T05:25:29.776Z,8740.00
2018-04-18T05:26:29.774Z,9048.00
2018-04-18T05:27:29.768Z,9348.00
2018-04-18T05:28:29.765Z,9656.00
2018-04-18T05:29:29.765Z,9960.00
2018-04-18T05:30:29.763Z,10244.00
2018-04-18T05:31:29.760Z,10540.00
2018-04-18T05:32:29.758Z,10856.00
2018-04-18T05:33:29.756Z,11208.00
2018-04-18T05:34:29.755Z,11548.00
2018-04-18T05:35:29.753Z,11868.00
2018-04-18T05:36:29.753Z,12184.00
2018-04-18T05:37:29.755Z,12476.00
2018-04-18T05:38:29.755Z,12864.00
2018-04-18T05:39:29.750Z,13216.00
2018-04-18T05:40:29.751Z,13568.00
2018-04-18T05:41:29.749Z,13920.00
2018-04-18T05:42:29.748Z,14176.00
2018-04-18T05:43:29.752Z,14560.00
2018-04-18T05:44:29.752Z,14784.00
2018-04-18T05:45:29.748Z,15040.00
2018-04-18T05:46:29.749Z,15296.00
2018-04-18T05:47:29.751Z,15584.00
2018-04-18T05:48:29.751Z,15872.00
2018-04-18T05:49:29.753Z,16128.00
2018-04-18T05:50:29.752Z,16384.00
2018-04-18T05:51:29.755Z,16608.00
2018-04-18T05:52:29.757Z,16768.00
2018-04-18T05:53:29.756Z,17024.00
2018-04-18T05:54:29.758Z,17280.00
2018-04-18T05:55:29.765Z,17536.00
2018-04-18T05:56:29.767Z,17792.00
2018-04-18T05:57:29.768Z,18048.00
2018-04-18T05:58:29.771Z,18240.00
2018-04-18T05:59:29.770Z,18496.00
2018-04-18T06:00:29.773Z,18688.00
2018-04-18T06:01:29.775Z,18944.00
2018-04-18T06:02:29.781Z,19200.00
2018-04-18T06:03:29.783Z,19392.00
2018-04-18T06:04:29.786Z,19648.00
2018-04-18T06:05:29.788Z,19872.00
2018-04-18T06:06:29.791Z,20096.00
2018-04-18T06:07:29.797Z,20288.00
2018-04-18T06:08:29.800Z,20512.00
2018-04-18T06:09:29.807Z,20768.00
2018-04-18T06:10:29.812Z,21024.00
2018-04-18T06:11:29.812Z,21312.00
2018-04-18T06:12:29.816Z,21568.00
2018-04-18T06:13:29.820Z,21792.00
2018-04-18T06:14:29.825Z,22016.00
2018-04-18T06:15:29.835Z,22112.00
2018-04-18T06:16:29.839Z,22400.00
2018-04-18T06:17:29.840Z,22656.00
2018-04-18T06:18:29.846Z,22816.00
2018-04-18T06:19:29.851Z,22976.00
2018-04-18T06:20:29.856Z,23168.00
2018-04-18T06:21:29.861Z,23392.00
2018-04-18T06:22:29.867Z,23584.00
2018-04-18T06:23:29.872Z,23744.00
2018-04-18T06:24:29.880Z,23968.00
2018-04-18T06:25:29.884Z,24096.00
2018-04-18T06:26:29.891Z,24224.00
2018-04-18T06:27:29.900Z,24384.00
2018-04-18T06:28:29.908Z,24544.00
2018-04-18T06:29:29.909Z,24672.00
2018-04-18T06:30:29.915Z,24928.00
2018-04-18T06:31:29.922Z,25184.00
2018-04-18T06:32:29.928Z,25344.00
2018-04-18T06:33:29.940Z,25504.00
2018-04-18T06:34:29.946Z,25696.00
2018-04-18T06:35:29.949Z,25792.00
2018-04-18T06:36:29.957Z,25984.00
2018-04-18T06:37:29.966Z,26112.00
2018-04-18T06:38:29.975Z,26336.00
2018-04-18T06:39:29.982Z,26496.00
2018-04-18T06:40:29.985Z,26592.00
2018-04-18T06:41:29.993Z,26752.00
2018-04-18T06:42:30.002Z,26848.00
2018-04-18T06:43:30.010Z,27040.00
2018-04-18T06:44:30.022Z,27200.00
2018-04-18T06:45:30.026Z,27264.00
2018-04-18T06:46:30.033Z,27488.00
2018-04-18T06:47:30.042Z,27552.00
2018-04-18T06:48:30.050Z,27680.00
2018-04-18T06:49:30.057Z,27872.00
2018-04-18T06:50:30.071Z,27968.00
2018-04-18T06:51:30.080Z,28096.00
2018-04-18T06:52:30.090Z,28256.00
2018-04-18T06:53:30.095Z,28480.00
2018-04-18T06:54:30.104Z,28576.00
2018-04-18T06:55:30.117Z,28704.00
2018-04-18T06:56:30.127Z,28832.00
2018-04-18T06:57:30.132Z,28992.00
2018-04-18T06:58:30.142Z,29056.00
2018-04-18T06:59:30.151Z,15712.00
2018-04-18T07:00:30.163Z,15872.00
2018-04-18T07:01:30.171Z,15968.00
2018-04-18T07:02:30.183Z,16160.00
2018-04-18T07:03:30.193Z,16256.00
2018-04-18T07:04:30.202Z,16448.00
2018-04-18T07:05:30.216Z,16576.00
2018-04-18T07:06:30.232Z,16736.00
2018-04-18T07:07:30.235Z,16928.00
2018-04-18T07:08:30.248Z,17088.00
2018-04-18T07:09:30.259Z,17184.00
2018-04-18T07:10:30.269Z,17344.00
2018-04-18T07:11:30.276Z,17472.00
2018-04-18T07:12:30.288Z,17600.00
2018-04-18T07:13:30.298Z,17728.00
2018-04-18T07:14:30.312Z,17920.00
2018-04-18T07:15:30.320Z,18112.00
2018-04-18T07:16:30.332Z,18272.00
2018-04-18T07:17:30.344Z,18432.00
2018-04-18T07:18:30.354Z,18720.00
2018-04-18T07:19:30.367Z,19296.00
2018-04-18T07:20:30.379Z,19936.00
2018-04-18T07:21:30.388Z,20160.00
2018-04-18T07:22:30.401Z,20320.00
2018-04-18T07:23:30.416Z,20608.00
2018-04-18T07:24:30.430Z,21184.00
2018-04-18T07:25:30.435Z,22528.00
2018-04-18T07:26:30.447Z,24000.00
2018-04-18T07:27:30.464Z,24672.00
2018-04-18T07:28:30.477Z,25088.00
2018-04-18T07:29:30.483Z,25568.00
2018-04-18T07:30:30.500Z,25696.00
2018-04-18T07:31:30.507Z,25856.00
2018-04-18T07:32:30.520Z,26688.00
2018-04-18T07:33:30.532Z,27680.00
2018-04-18T07:34:30.545Z,27968.00
2018-04-18T07:35:30.561Z,28672.00
2018-04-18T07:36:30.575Z,29472.00
2018-04-18T07:37:30.582Z,30464.00
2018-04-18T07:38:30.595Z,32000.00
2018-04-18T07:39:30.609Z,33472.00
2018-04-18T07:40:30.623Z,36032.00
2018-04-18T07:41:30.639Z,40992.00
2018-04-18T07:42:30.652Z,46048.00
2018-04-18T07:43:30.663Z,54176.00
2018-04-18T07:44:30.676Z,59456.00
2018-04-18T07:45:30.689Z,60832.00
2018-04-18T07:46:30.703Z,58240.00
2018-04-18T07:47:30.721Z,56032.00
2018-04-18T07:48:30.736Z,55200.00
2018-04-18T07:49:30.749Z,55040.00
2018-04-18T07:50:30.765Z,55808.00
2018-04-18T07:51:30.774Z,56096.00
2018-04-18T07:52:30.790Z,59360.00
2018-04-18T07:53:30.803Z,65824.00
2018-04-18T07:54:30.818Z,68192.00
2018-04-18T07:55:30.834Z,68512.00
2018-04-18T07:56:30.849Z,61248.00
2018-04-18T07:57:30.863Z,65536.00
2018-04-18T07:58:30.877Z,71232.00
2018-04-18T07:59:30.893Z,81376.00
2018-04-18T08:00:30.909Z,83648.00
2018-04-18T08:01:30.927Z,84544.00
2018-04-18T08:02:30.943Z,86656.00
2018-04-18T08:03:30.956Z,93792.00
2018-04-18T08:04:30.971Z,94944.00
2018-04-18T08:05:30.985Z,88288.00
2018-04-18T08:06:31.001Z,83616.00
2018-04-18T08:07:31.022Z,82208.00
2018-04-18T08:08:31.070Z,77632.00
2018-04-18T08:09:31.050Z,72192.00
2018-04-18T08:10:31.067Z,71968.00
2018-04-18T08:11:31.081Z,72736.00
2018-04-18T08:12:31.099Z,69888.00
2018-04-18T08:13:31.114Z,69344.00
2018-04-18T08:14:31.130Z,66496.00
2018-04-18T08:15:31.203Z,62880.00
2018-04-18T08:16:31.165Z,59392.00
2018-04-18T08:17:31.180Z,57632.00
2018-04-18T08:18:31.197Z,54528.00
2018-04-18T08:19:31.219Z,51584.00
2018-04-18T08:20:31.235Z,48928.00
2018-04-18T08:21:31.252Z,48320.00
2018-04-18T08:22:31.268Z,49760.00
2018-04-18T08:23:31.281Z,46496.00
2018-04-18T08:24:31.298Z,46208.00
2018-04-18T08:25:31.315Z,46592.00
2018-04-18T08:26:31.333Z,45600.00
2018-04-18T08:27:31.350Z,43712.00
2018-04-18T08:28:31.371Z,42976.00
2018-04-18T08:29:31.383Z,42624.00
2018-04-18T08:30:31.400Z,42560.00
2018-04-18T08:31:31.418Z,42688.00
2018-04-18T08:32:31.435Z,41568.00
2018-04-18T08:33:31.456Z,40800.00
2018-04-18T08:34:31.473Z,40288.00
2018-04-18T08:35:31.486Z,40096.00
2018-04-18T08:36:31.504Z,41024.00
2018-04-18T08:37:31.522Z,42752.00
2018-04-18T08:38:31.542Z,44448.00
2018-04-18T08:39:31.556Z,46112.00
2018-04-18T08:40:31.575Z,45664.00
2018-04-18T08:41:31.594Z,43488.00
2018-04-18T08:42:31.612Z,42304.00
2018-04-18T08:43:31.626Z,42176.00
2018-04-18T08:44:31.643Z,42016.00
2018-04-18T08:45:31.665Z,41632.00
2018-04-18T08:46:31.684Z,41984.00
2018-04-18T08:47:31.699Z,41568.00
2018-04-18T08:48:31.716Z,41824.00
2018-04-18T08:49:31.733Z,42336.00
2018-04-18T08:50:31.753Z,42528.00
2018-04-18T08:51:31.772Z,43200.00
2018-04-18T08:52:31.793Z,43520.00
2018-04-18T08:53:31.810Z,43648.00
2018-04-18T08:54:31.827Z,44416.00
2018-04-18T08:55:31.847Z,44576.00
2018-04-18T08:56:31.868Z,44256.00
2018-04-18T08:57:31.884Z,43904.00
2018-04-18T08:58:31.904Z,44032.00
2018-04-18T08:59:31.926Z,44736.00
2018-04-18T09:00:31.944Z,46176.00
2018-04-18T09:01:31.959Z,47168.00
2018-04-18T09:02:31.978Z,46816.00
2018-04-18T09:03:32.003Z,46048.00
2018-04-18T09:04:32.021Z,45728.00
2018-04-18T09:05:32.036Z,45664.00
2018-04-18T09:06:32.055Z,46848.00
2018-04-18T09:07:32.074Z,47008.00
2018-04-18T09:08:32.095Z,47040.00
2018-04-18T09:09:32.114Z,47872.00
2018-04-18T09:10:32.131Z,48608.00
2018-04-18T09:11:32.153Z,49024.00
2018-04-18T09:12:32.171Z,49056.00
2018-04-18T09:13:32.193Z,48864.00
2018-04-18T09:14:32.213Z,49152.00
2018-04-18T09:15:32.228Z,49600.00
2018-04-18T09:16:32.248Z,49824.00
2018-04-18T09:17:32.269Z,49856.00
2018-04-18T09:18:32.290Z,48928.00
2018-04-18T09:19:32.303Z,48480.00
2018-04-18T09:20:32.323Z,47424.00
2018-04-18T09:21:32.341Z,46080.00
2018-04-18T09:22:32.360Z,47296.00
2018-04-18T09:23:32.378Z,48928.00
2018-04-18T09:24:32.398Z,49440.00
2018-04-18T09:25:32.417Z,51264.00
2018-04-18T09:26:32.435Z,51872.00
2018-04-18T09:27:32.455Z,51520.00
2018-04-18T09:28:32.520Z,50624.00
2018-04-18T09:29:32.492Z,50144.00
2018-04-18T09:30:32.512Z,51424.00
2018-04-18T09:31:32.536Z,52096.00
2018-04-18T09:32:32.555Z,51552.00
2018-04-18T09:33:32.570Z,52352.00
2018-04-18T09:34:32.591Z,52896.00
2018-04-18T09:35:32.615Z,53344.00
2018-04-18T09:36:32.634Z,41248.00
2018-04-18T09:37:32.649Z,51520.00
2018-04-18T09:38:32.670Z,52736.00
2018-04-18T09:39:32.692Z,52736.00
2018-04-18T09:40:32.710Z,53536.00
2018-04-18T09:41:32.730Z,53984.00
2018-04-18T09:42:32.751Z,54176.00
2018-04-18T09:43:32.775Z,53632.00
2018-04-18T09:44:32.795Z,52192.00
2018-04-18T09:45:32.815Z,51968.00
2018-04-18T09:46:32.839Z,49696.00
2018-04-18T09:47:32.853Z,47488.00
2018-04-18T09:48:32.873Z,48448.00
2018-04-18T09:49:32.893Z,49696.00
2018-04-18T09:50:32.912Z,48960.00
2018-04-18T09:51:32.939Z,48320.00
2018-04-18T09:52:32.954Z,47328.00
2018-04-18T09:53:32.972Z,47936.00
2018-04-18T09:54:32.996Z,49056.00
2018-04-18T09:55:33.023Z,50976.00
2018-04-18T09:56:33.039Z,50752.00
2018-04-18T09:57:33.058Z,48832.00
2018-04-18T09:58:33.143Z,44320.00
2018-04-18T09:59:33.095Z,40064.00
2018-04-18T10:00:33.116Z,38912.00
2018-04-18T10:01:33.136Z,39616.00
2018-04-18T10:02:33.154Z,38240.00
2018-04-18T10:03:33.211Z,37280.00
2018-04-18T10:04:33.196Z,37632.00
2018-04-18T10:05:33.216Z,37248.00
2018-04-18T10:06:33.237Z,36096.00
2018-04-18T10:07:33.257Z,33376.00
2018-04-18T10:08:33.277Z,31904.00
2018-04-18T10:09:33.301Z,32224.00
2018-04-18T10:10:33.322Z,32800.00
2018-04-18T10:11:33.339Z,32864.00
2018-04-18T10:12:33.360Z,32800.00
2018-04-18T10:13:33.380Z,32992.00
2018-04-18T10:14:33.402Z,32416.00
2018-04-18T10:15:33.466Z,32416.00
2018-04-18T10:16:33.446Z,32352.00
2018-04-18T10:17:33.465Z,32544.00
2018-04-18T10:18:33.483Z,32032.00
2018-04-18T10:19:33.507Z,32032.00
2018-04-18T10:20:33.524Z,31936.00
2018-04-18T10:21:33.545Z,32064.00
2018-04-18T10:22:33.566Z,31712.00
2018-04-18T10:23:33.590Z,31808.00
2018-04-18T10:24:33.606Z,31552.00
2018-04-18T10:25:33.626Z,31296.00
2018-04-18T10:26:33.647Z,31072.00
2018-04-18T10:27:33.671Z,30784.00
2018-04-18T10:28:33.696Z,30656.00
2018-04-18T10:29:33.712Z,31264.00
2018-04-18T10:30:33.732Z,31648.00
2018-04-18T10:31:33.759Z,31552.00
2018-04-18T10:32:33.769Z,31584.00
2018-04-18T10:33:33.790Z,31456.00
2018-04-18T10:34:33.826Z,31424.00
2018-04-18T10:35:33.830Z,32064.00
2018-04-18T10:36:33.852Z,32096.00
2018-04-18T10:37:33.871Z,31968.00
2018-04-18T10:38:33.891Z,31072.00
2018-04-18T10:39:33.913Z,31904.00
2018-04-18T10:40:33.933Z,32608.00
2018-04-18T10:41:33.957Z,32544.00
2018-04-18T10:42:33.976Z,32128.00
2018-04-18T10:43:33.992Z,32096.00
2018-04-18T10:44:34.012Z,33088.00
2018-04-18T10:45:34.031Z,33440.00
2018-04-18T10:46:34.052Z,33856.00
2018-04-18T10:47:34.076Z,36576.00
2018-04-18T10:48:34.097Z,40224.00
2018-04-18T10:49:34.111Z,42464.00
2018-04-18T10:50:34.128Z,47296.00
2018-04-18T10:51:34.148Z,56064.00
2018-04-18T10:52:34.167Z,65536.00
2018-04-18T10:53:34.186Z,71776.00
2018-04-18T10:54:34.203Z,77280.00
2018-04-18T10:55:34.222Z,83520.00
2018-04-18T10:56:34.241Z,92512.00
2018-04-18T10:57:34.259Z,96896.00
2018-04-18T10:58:34.346Z,103328.00
2018-04-18T10:59:34.298Z,104128.00
2018-04-18T11:00:34.316Z,98176.00
2018-04-18T11:01:34.333Z,91008.00
2018-04-18T11:02:34.353Z,84416.00
2018-04-18T11:03:34.367Z,81824.00
2018-04-18T11:04:34.385Z,78944.00
2018-04-18T11:05:34.403Z,79904.00
2018-04-18T11:06:34.421Z,78848.00
2018-04-18T11:07:34.438Z,79488.00
2018-04-18T11:08:34.457Z,83648.00
2018-04-18T11:09:34.476Z,84768.00
2018-04-18T11:10:34.493Z,82080.00
2018-04-18T11:11:34.510Z,80224.00
2018-04-18T11:12:34.529Z,84256.00
2018-04-18T11:13:34.555Z,86208.00
2018-04-18T11:14:34.568Z,86016.00
2018-04-18T11:15:34.582Z,84992.00
2018-04-18T11:16:34.599Z,88128.00
2018-04-18T11:17:34.616Z,86528.00
2018-04-18T11:18:34.634Z,84416.00
2018-04-18T11:19:34.656Z,87168.00
2018-04-18T11:20:34.673Z,87136.00
2018-04-18T11:21:34.685Z,72800.00
2018-04-18T11:22:34.703Z,30240.00
2018-04-18T11:23:34.719Z,12584.00
2018-04-18T11:24:34.737Z,11272.00
2018-04-18T11:25:34.751Z,10808.00
2018-04-18T11:26:34.769Z,10424.00
2018-04-18T11:27:34.784Z,10148.00
2018-04-18T11:28:34.799Z,9916.00
2018-04-18T11:29:34.811Z,9696.00
2018-04-18T11:30:34.826Z,9624.00
2018-04-18T11:31:34.852Z,9544.00
2018-04-18T11:32:34.860Z,9452.00
2018-04-18T11:33:34.873Z,9388.00
2018-04-18T11:34:34.886Z,9444.00
2018-04-18T11:35:34.897Z,9396.00
2018-04-18T11:36:34.910Z,9332.00
2018-04-18T11:37:34.920Z,9216.00
2018-04-18T11:38:34.931Z,9032.00
2018-04-18T11:39:34.944Z,9048.00
2018-04-18T11:40:34.956Z,8912.00
2018-04-18T11:41:34.970Z,8816.00
2018-04-18T11:42:34.980Z,8664.00
2018-04-18T11:43:34.988Z,8552.00
2018-04-18T11:44:35.000Z,8432.00
2018-04-18T11:45:35.017Z,8360.00
2018-04-18T11:46:35.023Z,8220.00
2018-04-18T11:47:35.032Z,8144.00
2018-04-18T11:48:35.044Z,8040.00
2018-04-18T11:49:35.048Z,7988.00
2018-04-18T11:50:35.057Z,7904.00
2018-04-18T11:51:35.068Z,7800.00
2018-04-18T11:52:35.080Z,7720.00
2018-04-18T11:53:35.089Z,7576.00
2018-04-18T11:54:35.097Z,7548.00
2018-04-18T11:55:35.103Z,7436.00
2018-04-18T11:56:35.114Z,7340.00
2018-04-18T11:57:35.134Z,7356.00
2018-04-18T11:58:35.131Z,7332.00
2018-04-18T11:59:35.137Z,7340.00
2018-04-18T12:00:35.145Z,7340.00
2018-04-18T12:01:35.160Z,7280.00
2018-04-18T12:02:35.161Z,7232.00
2018-04-18T12:03:35.168Z,7248.00
2018-04-18T12:04:35.177Z,7308.00
2018-04-18T12:05:35.185Z,7280.00
2018-04-18T12:06:35.191Z,7276.00
2018-04-18T12:07:35.199Z,7284.00
2018-04-18T12:08:35.208Z,7276.00
2018-04-18T12:09:35.214Z,7308.00
2018-04-18T12:10:35.222Z,7320.00
2018-04-18T12:11:35.242Z,7300.00
2018-04-18T12:12:35.243Z,7244.00
2018-04-18T12:13:35.243Z,7224.00
2018-04-18T12:14:35.252Z,7184.00
2018-04-18T12:15:35.264Z,7176.00
2018-04-18T12:16:35.271Z,7172.00
2018-04-18T12:17:35.275Z,7084.00
2018-04-18T12:18:35.282Z,7012.00
2018-04-18T12:19:35.289Z,6916.00